createdAt,value
2022-12-19T00:01:38.902Z,99.70
2022-12-19T00:04:12.683Z,99.70
2022-12-19T00:06:44.107Z,99.60
2022-12-19T00:09:13.014Z,99.60
2022-12-19T00:11:40.973Z,99.70
2022-12-19T00:14:11.554Z,99.70
2022-12-19T00:16:38.985Z,99.60
2022-12-19T00:19:06.448Z,99.80
2022-12-19T00:21:35.426Z,99.50
2022-12-19T00:24:15.814Z,99.50
2022-12-19T00:26:49.282Z,99.50
2022-12-19T00:29:16.647Z,99.50
2022-12-19T00:31:44.681Z,99.40
2022-12-19T00:34:14.898Z,99.60
2022-12-19T00:36:42.015Z,99.30
2022-12-19T00:39:10.514Z,99.30
2022-12-19T00:41:41.558Z,99.30
2022-12-19T00:44:16.015Z,99.40
2022-12-19T00:46:43.895Z,99.40
2022-12-19T00:49:18.585Z,99.70
2022-12-19T00:51:47.225Z,99.40
2022-12-19T00:54:14.579Z,99.40
2022-12-19T00:56:42.190Z,99.30
2022-12-19T00:59:10.611Z,99.20
2022-12-19T01:01:41.841Z,99.20
2022-12-19T01:04:31.280Z,99.10
2022-12-19T01:07:01.981Z,99.10
2022-12-19T01:09:37.831Z,99.10
2022-12-19T01:12:25.355Z,99.10
2022-12-19T01:15:04.736Z,99.10
2022-12-19T01:17:39.135Z,99.00
2022-12-19T01:20:16.156Z,99.00
2022-12-19T01:22:45.627Z,99.10
2022-12-19T01:25:15.069Z,99.10
2022-12-19T01:27:42.145Z,99.10
2022-12-19T01:30:10.622Z,99.10
2022-12-19T01:32:38.612Z,99.10
2022-12-19T01:35:06.301Z,99.00
2022-12-19T01:37:37.047Z,99.00
2022-12-19T01:40:04.619Z,99.00
2022-12-19T01:42:37.018Z,99.10
2022-12-19T01:45:13.658Z,99.10
2022-12-19T01:48:08.154Z,99.10
2022-12-19T01:50:53.586Z,99.10
2022-12-19T01:53:37.977Z,99.00
2022-12-19T01:56:19.634Z,99.00
2022-12-19T01:58:50.392Z,99.10
2022-12-19T02:01:24.508Z,99.10
2022-12-19T02:03:54.737Z,98.90
2022-12-19T02:06:22.602Z,98.90
2022-12-19T02:08:50.771Z,98.90
2022-12-19T02:11:17.931Z,98.80
2022-12-19T02:13:46.738Z,98.80
2022-12-19T02:16:30.272Z,98.90
2022-12-19T02:19:19.560Z,98.70
2022-12-19T02:22:16.102Z,98.70
2022-12-19T02:25:11.877Z,98.80
2022-12-19T02:28:03.899Z,98.90
2022-12-19T02:30:42.284Z,99.00
2022-12-19T02:33:54.435Z,99.10
2022-12-19T02:36:52.863Z,99.10
2022-12-19T02:39:45.554Z,99.10
2022-12-19T02:42:29.171Z,99.10
2022-12-19T02:45:04.023Z,99.10
2022-12-19T02:47:33.337Z,99.10
2022-12-19T02:50:03.176Z,99.20
2022-12-19T02:52:30.361Z,99.00
2022-12-19T02:55:04.436Z,98.90
2022-12-19T02:58:23.502Z,99.00
2022-12-19T03:01:32.622Z,99.00
2022-12-19T03:05:07.229Z,99.10
2022-12-19T03:07:41.820Z,99.10
2022-12-19T03:10:41.702Z,99.20
2022-12-19T03:13:23.445Z,99.20
2022-12-19T03:15:52.566Z,99.10
2022-12-19T03:18:21.623Z,99.00
2022-12-19T03:21:28.411Z,99.00
2022-12-19T03:23:58.170Z,99.00
2022-12-19T03:26:43.808Z,99.00
2022-12-19T03:29:34.293Z,99.00
2022-12-19T03:32:07.355Z,99.00
2022-12-19T03:34:52.102Z,98.90
2022-12-19T03:37:25.910Z,98.90
2022-12-19T03:40:02.516Z,98.90
2022-12-19T03:42:51.734Z,99.10
2022-12-19T03:45:47.404Z,99.50
2022-12-19T03:48:32.043Z,99.10
2022-12-19T03:51:30.180Z,99.10
2022-12-19T03:54:39.060Z,99.10
2022-12-19T03:57:33.301Z,99.00
2022-12-19T04:00:10.242Z,99.00
2022-12-19T04:02:48.812Z,99.10
2022-12-19T04:05:22.227Z,99.10
2022-12-19T04:07:52.377Z,99.10
2022-12-19T04:10:25.471Z,99.00
2022-12-19T04:13:16.344Z,99.00
2022-12-19T04:16:04.559Z,98.90
2022-12-19T04:18:33.657Z,99.00
2022-12-19T04:21:19.100Z,99.00
2022-12-19T04:23:56.710Z,99.10
2022-12-19T04:26:26.048Z,99.10
2022-12-19T04:29:02.585Z,99.00
2022-12-19T04:31:31.087Z,99.00
2022-12-19T04:33:58.253Z,99.00
2022-12-19T04:36:26.610Z,99.00
2022-12-19T04:38:53.830Z,98.90
2022-12-19T04:41:21.070Z,98.90
2022-12-19T04:43:48.160Z,98.50
2022-12-19T04:46:15.558Z,98.60
2022-12-19T04:48:42.648Z,98.80
2022-12-19T04:51:09.766Z,98.90
2022-12-19T04:53:36.875Z,98.90
2022-12-19T04:56:06.763Z,99.00
2022-12-19T04:58:34.539Z,99.00
2022-12-19T05:01:08.398Z,99.00
2022-12-19T05:03:36.781Z,98.90
2022-12-19T05:06:07.194Z,98.80
2022-12-19T05:08:36.533Z,98.80
2022-12-19T05:11:06.824Z,98.70
2022-12-19T05:13:33.902Z,98.80
2022-12-19T05:16:05.352Z,98.80
2022-12-19T05:18:33.561Z,98.80
2022-12-19T05:21:01.165Z,98.90
2022-12-19T05:23:28.504Z,98.90
2022-12-19T05:25:59.796Z,98.90
2022-12-19T05:28:26.992Z,98.90
2022-12-19T05:31:05.207Z,98.70
2022-12-19T05:33:32.401Z,98.80
2022-12-19T05:35:59.502Z,98.70
2022-12-19T05:38:27.221Z,98.80
2022-12-19T05:40:54.495Z,98.60
2022-12-19T05:43:22.303Z,98.50
2022-12-19T05:45:49.682Z,98.80
2022-12-19T05:48:17.148Z,98.60
2022-12-19T05:50:50.160Z,98.80
2022-12-19T05:53:21.915Z,98.80
2022-12-19T05:55:53.130Z,98.70
2022-12-19T05:58:20.267Z,98.80
2022-12-19T06:00:47.328Z,99.30
2022-12-19T06:03:14.467Z,99.00
2022-12-19T06:05:41.639Z,99.10
2022-12-19T06:08:09.515Z,98.80
2022-12-19T06:10:36.619Z,98.90
2022-12-19T06:13:03.687Z,99.00
2022-12-19T06:15:30.743Z,99.10
2022-12-19T06:17:57.866Z,99.00
2022-12-19T06:20:24.953Z,99.10
2022-12-19T06:22:52.064Z,99.20
2022-12-19T06:25:19.110Z,99.20
2022-12-19T06:27:46.211Z,99.20
2022-12-19T06:30:15.128Z,99.30
2022-12-19T06:32:42.320Z,99.30
2022-12-19T06:35:09.735Z,99.70
2022-12-19T06:37:39.333Z,99.40
2022-12-19T06:40:07.850Z,99.40
2022-12-19T06:42:34.908Z,99.60
2022-12-19T06:45:01.978Z,99.70
2022-12-19T06:47:29.401Z,99.80
2022-12-19T06:49:56.535Z,99.80
2022-12-19T06:52:23.608Z,99.90
2022-12-19T06:54:50.735Z,99.90
2022-12-19T06:57:17.817Z,99.90
2022-12-19T06:59:44.907Z,99.90
2022-12-19T07:02:30.361Z,99.90
2022-12-19T07:05:07.300Z,99.90
2022-12-19T07:07:34.498Z,99.90
2022-12-19T07:10:01.714Z,99.90
2022-12-19T07:12:28.807Z,99.90
2022-12-19T07:14:55.966Z,99.90
2022-12-19T07:17:26.075Z,99.90
2022-12-19T07:19:58.453Z,99.90
2022-12-19T07:22:33.029Z,99.90
2022-12-19T07:25:02.301Z,99.90
2022-12-19T07:27:35.403Z,99.90
2022-12-19T07:30:04.774Z,99.90
2022-12-19T07:32:32.039Z,99.90
2022-12-19T07:34:59.217Z,99.90
2022-12-19T07:37:26.282Z,99.90
2022-12-19T07:39:53.365Z,99.90
2022-12-19T07:42:20.518Z,99.90
2022-12-19T07:44:47.628Z,99.90
2022-12-19T07:47:14.714Z,99.90
2022-12-19T07:49:41.819Z,99.90
2022-12-19T07:52:08.937Z,99.90
2022-12-19T07:54:36.146Z,99.90
2022-12-19T07:57:05.732Z,99.90
2022-12-19T07:59:38.809Z,99.90
2022-12-19T08:02:06.907Z,99.90
2022-12-19T08:04:35.356Z,99.90
2022-12-19T08:07:02.515Z,99.90
2022-12-19T08:09:29.634Z,99.90
2022-12-19T08:11:58.833Z,99.90
2022-12-19T08:14:25.913Z,99.90
2022-12-19T08:17:19.664Z,99.90
2022-12-19T08:19:40.116Z,99.90
2022-12-19T08:22:07.212Z,99.90
2022-12-19T08:24:34.826Z,99.90
2022-12-19T08:27:01.918Z,99.90
2022-12-19T08:29:29.115Z,99.90
2022-12-19T08:31:56.201Z,99.90
2022-12-19T08:34:23.256Z,99.90
2022-12-19T08:36:50.357Z,99.90
2022-12-19T08:39:17.508Z,99.90
2022-12-19T08:41:45.113Z,99.90
2022-12-19T08:44:13.380Z,99.90
2022-12-19T08:46:44.980Z,99.90
2022-12-19T08:49:15.448Z,99.90
2022-12-19T08:51:42.561Z,99.90
2022-12-19T08:54:11.765Z,99.90
2022-12-19T08:56:41.545Z,99.90
2022-12-19T08:59:10.694Z,99.90
2022-12-19T09:01:40.488Z,99.90
2022-12-19T09:05:18.710Z,99.90
2022-12-19T09:06:54.730Z,99.90
2022-12-19T09:09:21.854Z,99.90
2022-12-19T09:11:48.931Z,99.90
2022-12-19T09:14:21.156Z,99.90
2022-12-19T09:16:48.911Z,99.90
2022-12-19T09:19:16.879Z,99.90
2022-12-19T09:21:44.661Z,99.90
2022-12-19T09:24:11.746Z,99.90
2022-12-19T09:26:39.491Z,99.90
2022-12-19T09:29:12.728Z,99.90
2022-12-19T09:31:47.702Z,99.90
2022-12-19T09:34:18.784Z,99.90
2022-12-19T09:36:49.065Z,99.90
2022-12-19T09:39:17.399Z,99.90
2022-12-19T09:42:17.868Z,99.90
2022-12-19T09:44:50.820Z,99.90
2022-12-19T09:47:29.291Z,99.90
2022-12-19T09:49:59.704Z,99.90
2022-12-19T09:52:37.480Z,99.90
2022-12-19T09:55:33.157Z,99.90
2022-12-19T09:58:18.815Z,99.90
2022-12-19T10:00:56.779Z,99.90
2022-12-19T10:04:10.022Z,99.90
2022-12-19T10:07:19.813Z,99.90
2022-12-19T10:11:45.777Z,99.90
2022-12-19T10:12:50.788Z,99.90
2022-12-19T10:16:00.240Z,99.90
2022-12-19T10:18:56.963Z,99.90
2022-12-19T10:22:21.340Z,99.90
2022-12-19T10:25:10.362Z,99.90
2022-12-19T10:27:59.311Z,99.90
2022-12-19T10:30:33.225Z,99.90
2022-12-19T10:33:11.764Z,99.90
2022-12-19T10:36:02.049Z,99.90
2022-12-19T10:38:51.698Z,99.90
2022-12-19T10:41:30.385Z,99.90
2022-12-19T10:44:10.184Z,99.90
2022-12-19T10:46:46.991Z,99.90
2022-12-19T10:49:24.949Z,99.90
2022-12-19T10:52:08.120Z,99.90
2022-12-19T10:54:41.661Z,99.90
2022-12-19T10:57:22.540Z,99.90
2022-12-19T11:00:25.996Z,99.90
2022-12-19T11:03:14.385Z,99.90
2022-12-19T11:05:58.912Z,99.90
2022-12-19T11:08:36.112Z,99.90
2022-12-19T11:12:35.580Z,99.90
2022-12-19T11:18:30.649Z,99.90
2022-12-19T11:24:08.302Z,99.90
2022-12-19T11:29:25.173Z,99.90
2022-12-19T11:29:27.583Z,99.90
2022-12-19T11:29:36.674Z,99.90
2022-12-19T11:30:26.148Z,99.90
2022-12-19T11:34:18.538Z,99.90
2022-12-19T11:36:53.554Z,99.90
2022-12-19T11:40:10.173Z,99.90
2022-12-19T11:43:41.877Z,99.90
2022-12-19T11:46:21.132Z,99.90
2022-12-19T11:49:11.159Z,99.90
2022-12-19T11:52:01.019Z,99.90
2022-12-19T11:54:36.430Z,99.90
2022-12-19T11:57:03.948Z,99.90
2022-12-19T11:59:35.974Z,99.90
2022-12-19T12:02:37.819Z,99.90
2022-12-19T12:05:35.665Z,99.90
2022-12-19T12:09:50.145Z,99.90
2022-12-19T12:18:29.512Z,99.90
2022-12-19T12:28:21.391Z,99.90
2022-12-19T12:31:11.642Z,99.90
2022-12-19T12:31:14.692Z,99.90
2022-12-19T12:31:41.328Z,99.90
2022-12-19T12:31:49.442Z,99.90
2022-12-19T12:35:13.681Z,99.90
2022-12-19T12:39:18.034Z,99.90
2022-12-19T12:42:58.982Z,99.90
2022-12-19T12:45:43.186Z,99.90
2022-12-19T12:48:42.376Z,99.90
2022-12-19T12:51:11.221Z,99.90
2022-12-19T12:53:43.951Z,99.90
2022-12-19T12:56:14.856Z,99.90
2022-12-19T12:58:54.390Z,99.90
2022-12-19T13:01:41.471Z,99.90
2022-12-19T13:04:11.569Z,99.90
2022-12-19T13:06:41.607Z,99.90
2022-12-19T13:09:08.603Z,99.90
2022-12-19T13:12:05.663Z,99.90
2022-12-19T13:14:35.909Z,99.90
2022-12-19T13:17:09.036Z,99.90
2022-12-19T13:19:55.519Z,99.90
2022-12-19T13:23:01.446Z,99.90
2022-12-19T13:25:34.620Z,99.90
2022-12-19T13:28:01.622Z,99.90
2022-12-19T13:30:45.889Z,99.90
2022-12-19T13:33:20.724Z,99.90
2022-12-19T13:37:10.219Z,99.90
2022-12-19T13:40:01.895Z,99.90
2022-12-19T13:42:01.660Z,99.90
2022-12-19T13:44:30.533Z,99.90
2022-12-19T13:46:57.677Z,99.90
2022-12-19T13:49:34.707Z,99.90
2022-12-19T13:52:05.079Z,99.90
2022-12-19T13:54:46.728Z,99.90
2022-12-19T13:57:31.908Z,99.90
2022-12-19T14:00:04.104Z,99.90
2022-12-19T14:02:51.891Z,99.90
2022-12-19T14:06:14.845Z,99.90
2022-12-19T14:08:24.134Z,99.90
2022-12-19T14:11:43.819Z,99.90
2022-12-19T14:14:19.156Z,99.90
2022-12-19T14:16:51.850Z,99.90
2022-12-19T14:19:27.870Z,99.90
2022-12-19T14:22:09.905Z,99.90
2022-12-19T14:24:41.555Z,99.90
2022-12-19T14:28:17.242Z,99.90
2022-12-19T14:30:30.680Z,99.90
2022-12-19T14:33:44.911Z,99.90
2022-12-19T14:36:10.320Z,99.90
2022-12-19T14:39:25.380Z,99.90
2022-12-19T14:42:12.992Z,99.90
2022-12-19T14:52:34.300Z,99.90
2022-12-19T14:54:07.407Z,99.90
2022-12-19T14:54:12.113Z,99.90
2022-12-19T14:54:22.085Z,99.90
2022-12-19T14:56:40.261Z,99.90
2022-12-19T14:59:48.693Z,99.90
2022-12-19T15:02:34.043Z,99.90
2022-12-19T15:05:07.605Z,99.90
2022-12-19T15:07:35.424Z,99.90
2022-12-19T15:11:08.673Z,99.90
2022-12-19T15:14:57.777Z,99.90
2022-12-19T15:16:05.966Z,99.90
2022-12-19T15:18:33.226Z,99.90
2022-12-19T15:21:15.154Z,99.90
2022-12-19T15:23:45.193Z,99.90
2022-12-19T15:26:17.570Z,99.90
2022-12-19T15:28:54.180Z,99.90
2022-12-19T15:31:43.585Z,99.90
2022-12-19T15:36:58.493Z,99.90
2022-12-19T15:39:29.474Z,99.90
2022-12-19T15:41:59.731Z,99.90
2022-12-19T15:44:38.474Z,99.90
2022-12-19T15:47:18.565Z,99.90
2022-12-19T15:49:46.817Z,99.90
2022-12-19T15:52:21.324Z,99.90
2022-12-19T15:54:50.106Z,99.90
2022-12-19T15:57:39.096Z,99.90
2022-12-19T16:00:25.459Z,99.90
2022-12-19T16:05:42.298Z,99.90
2022-12-19T16:08:15.874Z,99.90
2022-12-19T16:10:45.959Z,99.90
2022-12-19T16:13:25.063Z,99.90
2022-12-19T16:15:55.016Z,99.90
2022-12-19T16:18:22.474Z,99.90
2022-12-19T16:20:49.617Z,99.90
2022-12-19T16:23:17.495Z,99.90
2022-12-19T16:25:53.258Z,99.90
2022-12-19T16:28:31.055Z,99.90
2022-12-19T16:31:00.019Z,99.90
2022-12-19T16:33:30.587Z,99.90
2022-12-19T16:36:06.570Z,99.90
2022-12-19T16:38:35.753Z,99.90
2022-12-19T16:41:03.308Z,99.90
2022-12-19T16:43:43.795Z,99.90
2022-12-19T16:46:22.180Z,99.90
2022-12-19T16:48:50.085Z,99.90
2022-12-19T16:51:21.316Z,99.90
2022-12-19T16:53:51.468Z,99.90
2022-12-19T16:56:32.709Z,99.90
2022-12-19T16:59:04.750Z,99.90
2022-12-19T17:01:32.235Z,99.90
2022-12-19T17:03:59.425Z,99.90
2022-12-19T17:06:27.174Z,99.90
2022-12-19T17:08:54.220Z,99.90
2022-12-19T17:11:31.155Z,99.90
2022-12-19T17:14:10.350Z,99.90
2022-12-19T17:16:37.835Z,99.90
2022-12-19T17:19:05.045Z,99.90
2022-12-19T17:21:32.176Z,99.90
2022-12-19T17:23:59.407Z,99.90
2022-12-19T17:26:26.477Z,99.90
2022-12-19T17:28:53.595Z,99.90
2022-12-19T17:31:26.445Z,99.90
2022-12-19T17:33:58.061Z,99.90
2022-12-19T17:36:36.532Z,99.90
2022-12-19T17:39:30.524Z,99.90
2022-12-19T17:42:23.318Z,99.90
2022-12-19T17:44:51.381Z,99.90
2022-12-19T17:47:20.734Z,99.90
2022-12-19T17:49:49.352Z,99.90
2022-12-19T17:52:19.996Z,99.90
2022-12-19T17:54:47.792Z,99.90
2022-12-19T17:57:17.877Z,99.90
2022-12-19T17:59:46.759Z,99.90
2022-12-19T18:02:26.501Z,99.90
2022-12-19T18:04:53.793Z,99.90
2022-12-19T18:07:21.289Z,99.90
2022-12-19T18:09:48.495Z,99.90
2022-12-19T18:12:15.751Z,99.90
2022-12-19T18:14:42.905Z,99.90
2022-12-19T18:17:18.430Z,99.90
2022-12-19T18:19:45.550Z,99.90
2022-12-19T18:22:14.337Z,99.90
2022-12-19T18:24:41.812Z,99.90
2022-12-19T18:27:09.280Z,99.90
2022-12-19T18:29:36.427Z,99.90
2022-12-19T18:32:03.736Z,99.90
2022-12-19T18:34:33.342Z,99.90
2022-12-19T18:37:00.485Z,99.90
2022-12-19T18:39:29.235Z,99.90
2022-12-19T18:41:56.447Z,99.90
2022-12-19T18:44:23.518Z,99.90
2022-12-19T18:46:52.825Z,99.90
2022-12-19T18:49:20.893Z,99.90
2022-12-19T18:51:47.985Z,99.90
2022-12-19T18:54:21.818Z,99.90
2022-12-19T18:56:49.034Z,99.90
2022-12-19T18:59:16.063Z,99.90
2022-12-19T19:01:46.932Z,99.90
2022-12-19T19:04:17.915Z,99.90
2022-12-19T19:06:51.466Z,99.90
2022-12-19T19:09:21.355Z,99.90
2022-12-19T19:12:17.887Z,99.90
2022-12-19T19:14:44.976Z,99.90
2022-12-19T19:17:28.193Z,99.90
2022-12-19T19:19:55.628Z,99.90
2022-12-19T19:22:23.281Z,99.90
2022-12-19T19:24:50.621Z,99.90
2022-12-19T19:27:17.905Z,99.90
2022-12-19T19:29:44.963Z,99.90
2022-12-19T19:32:12.100Z,99.90
2022-12-19T19:34:41.445Z,99.90
2022-12-19T19:37:13.579Z,99.90
2022-12-19T19:39:40.803Z,99.90
2022-12-19T19:42:08.285Z,99.90
2022-12-19T19:44:35.796Z,99.90
2022-12-19T19:47:02.881Z,99.90
2022-12-19T19:49:30.049Z,99.90
2022-12-19T19:52:02.496Z,99.90
2022-12-19T19:54:31.763Z,99.90
2022-12-19T19:56:58.973Z,99.90
2022-12-19T19:59:30.675Z,99.90
2022-12-19T20:01:57.922Z,99.90
2022-12-19T20:04:26.145Z,99.90
2022-12-19T20:06:53.296Z,99.90
2022-12-19T20:09:20.560Z,99.90
2022-12-19T20:11:47.625Z,99.90
2022-12-19T20:14:14.731Z,99.90
2022-12-19T20:16:43.463Z,99.90
2022-12-19T20:19:10.886Z,99.90
2022-12-19T20:21:38.029Z,99.90
2022-12-19T20:24:05.447Z,99.90
2022-12-19T20:26:32.552Z,99.90
2022-12-19T20:28:59.911Z,99.90
2022-12-19T20:31:27.401Z,99.90
2022-12-19T20:33:55.652Z,99.90
2022-12-19T20:36:23.907Z,99.90
2022-12-19T20:38:52.209Z,99.90
2022-12-19T20:41:19.657Z,99.90
2022-12-19T20:43:48.238Z,99.90
2022-12-19T20:46:18.809Z,99.90
2022-12-19T20:48:48.752Z,99.90
2022-12-19T20:51:17.559Z,99.90
2022-12-19T20:53:44.740Z,99.90
2022-12-19T20:56:17.711Z,99.90
2022-12-19T20:58:45.839Z,99.90
2022-12-19T21:01:17.993Z,99.90
2022-12-19T21:03:45.658Z,99.90
2022-12-19T21:06:18.205Z,99.90
2022-12-19T21:08:45.777Z,99.90
2022-12-19T21:11:15.602Z,99.90
2022-12-19T21:13:43.814Z,99.90
2022-12-19T21:16:19.125Z,99.90
2022-12-19T21:18:48.429Z,99.90
2022-12-19T21:21:20.666Z,99.90
2022-12-19T21:23:47.929Z,99.90
2022-12-19T21:26:15.122Z,99.90
2022-12-19T21:28:43.220Z,99.90
2022-12-19T21:31:21.249Z,99.90
2022-12-19T21:33:49.464Z,99.90
2022-12-19T21:36:20.665Z,99.90
2022-12-19T21:38:55.076Z,99.90
2022-12-19T21:41:22.603Z,99.90
2022-12-19T21:43:53.817Z,99.90
2022-12-19T21:46:25.596Z,99.90
2022-12-19T21:48:55.581Z,99.90
2022-12-19T21:51:27.453Z,99.90
2022-12-19T21:54:00.744Z,99.90
2022-12-19T21:56:39.573Z,99.90
2022-12-19T21:59:12.485Z,99.90
2022-12-19T22:01:40.031Z,99.90
2022-12-19T22:04:13.740Z,99.90
2022-12-19T22:06:40.993Z,99.90
2022-12-19T22:09:13.268Z,99.90
2022-12-19T22:11:40.446Z,99.90
2022-12-19T22:14:07.680Z,99.90
2022-12-19T22:16:35.707Z,99.90
2022-12-19T22:19:03.794Z,99.90
2022-12-19T22:21:31.900Z,99.90
2022-12-19T22:24:01.725Z,99.90
2022-12-19T22:26:33.180Z,99.90
2022-12-19T22:29:00.243Z,99.90
2022-12-19T22:31:33.573Z,99.90
2022-12-19T22:34:13.523Z,99.90
2022-12-19T22:36:43.518Z,99.90
2022-12-19T22:39:17.891Z,99.90
2022-12-19T22:41:45.298Z,99.90
2022-12-19T22:44:20.169Z,99.90
2022-12-19T22:46:48.957Z,99.90
2022-12-19T22:49:16.330Z,99.90
2022-12-19T22:51:43.770Z,99.90
2022-12-19T22:54:12.897Z,99.90
2022-12-19T22:56:42.409Z,99.90
2022-12-19T22:59:12.271Z,99.90
2022-12-19T23:01:43.338Z,99.90
2022-12-19T23:04:14.594Z,99.90
2022-12-19T23:06:42.124Z,99.90
2022-12-19T23:09:13.935Z,99.90
2022-12-19T23:11:43.420Z,99.90
2022-12-19T23:14:15.181Z,99.90
2022-12-19T23:16:44.106Z,99.90
2022-12-19T23:19:12.306Z,99.90
2022-12-19T23:21:39.386Z,99.90
2022-12-19T23:24:07.179Z,99.90
2022-12-19T23:26:37.066Z,99.90
2022-12-19T23:29:11.448Z,99.90
2022-12-19T23:31:45.318Z,99.90
2022-12-19T23:34:13.564Z,99.90
2022-12-19T23:39:28.317Z,99.90
2022-12-19T23:41:55.426Z,99.90
2022-12-19T23:44:22.833Z,99.90
2022-12-19T23:46:49.916Z,99.90
2022-12-19T23:49:17.118Z,99.90
2022-12-19T23:51:44.193Z,99.90
2022-12-19T23:54:11.489Z,99.90
2022-12-19T23:56:38.696Z,99.90
2022-12-19T23:59:05.859Z,99.90
